Terminal Aerodrome Forecast
Issued by NWS

Home | Current Version | Previous Version | Text Only | Print | Product List | Glossary On
Versions: 1 2 3 4 5 6 7 8 9 10 11 12 13 14 15 16 17
000
FTAK31 PANC 181743
TAFADU
TAF
PADU 181743Z 1818/1918 23007KT P6SM SCT022 BKN250
     FM190300 11008KT P6SM BKN025 OVC040
     FM190900 09008G15KT P6SM SCT015 OVC025=

USA.gov is the U.S. government's official web portal to all federal, state and local government web resources and services.